121650Z 33004KT CAVOK M08/M10 Q1034 RWY 14 ICE 11-25 PCT FCT 0.60=

121430Z 1215/1224 32005KT CAVOK=

Aktuell METAR/TAF ESNU/UME

Källa: Luftfartsverket (aro.lfv.se)